Time;durP1;ratioP1;P1;durP2;ratioP2;P2;SDS_P1;SDS_P2;PMS_P1;PMS_P2;Temp;Humidity;BMP_temperature;BMP_pressure;BME280_temperature;BME280_humidity;BME280_pressure;Samples;Min_cycle;Max_cycle;Signal;HPM_P1;HPM_P2
2024/01/11 00:01:28;;;;;;;9.60;6.40;;;;;;;-5.58;84.98;97586.42;108357;1282;22518;-85
2024/01/11 00:03:54;;;;;;;10.30;6.10;;;;;;;-5.53;84.94;97585.23;108222;1282;138615;-85
2024/01/11 00:06:21;;;;;;;6.80;5.70;;;;;;;-5.48;84.90;97577.93;108447;1278;22526;-85
2024/01/11 00:08:48;;;;;;;7.40;5.50;;;;;;;-5.38;84.58;97574.58;108334;1282;23767;-85
2024/01/11 00:11:15;;;;;;;6.90;5.90;;;;;;;-5.32;84.73;97567.11;109766;1281;138206;-86
2024/01/11 00:13:42;;;;;;;6.60;5.40;;;;;;;-5.30;84.97;97565.68;109434;1283;22596;-86
2024/01/11 00:16:09;;;;;;;6.50;5.40;;;;;;;-5.24;84.88;97564.94;108281;1282;138562;-85
2024/01/11 00:18:35;;;;;;;5.20;4.40;;;;;;;-5.21;84.62;97561.61;108431;1282;23879;-86
2024/01/11 00:21:02;;;;;;;5.30;4.50;;;;;;;-5.19;84.69;97560.87;108370;1283;25272;-85
2024/01/11 00:23:28;;;;;;;4.90;4.30;;;;;;;-5.15;84.08;97557.33;108339;1282;138011;-84
2024/01/11 00:25:55;;;;;;;5.30;4.30;;;;;;;-5.08;83.93;97551.52;108488;1265;22550;-85
2024/01/11 00:28:22;;;;;;;4.60;4.10;;;;;;;-5.00;83.56;97546.47;108382;1281;138170;-85
2024/01/11 00:30:48;;;;;;;4.00;3.70;;;;;;;-4.81;83.81;97542.19;108376;1282;22582;-85
2024/01/11 00:33:15;;;;;;;6.80;3.80;;;;;;;-4.73;84.50;97540.70;108432;1281;22557;-86
2024/01/11 00:35:41;;;;;;;3.90;3.60;;;;;;;-4.71;84.85;97535.06;108309;1282;138475;-85
2024/01/11 00:38:08;;;;;;;3.40;3.10;;;;;;;-4.68;85.12;97541.86;108336;1281;22555;-85
2024/01/11 00:40:34;;;;;;;3.50;3.30;;;;;;;-4.65;84.72;97535.15;108207;1282;137942;-85
2024/01/11 00:43:01;;;;;;;3.90;3.60;;;;;;;-4.60;84.62;97532.42;108367;1281;22537;-85
2024/01/11 00:45:28;;;;;;;3.20;3.00;;;;;;;-4.54;84.24;97523.02;108380;1280;22561;-85
2024/01/11 00:47:54;;;;;;;4.00;3.60;;;;;;;-4.44;82.96;97518.23;108185;1282;138214;-85
2024/01/11 00:50:21;;;;;;;3.50;3.20;;;;;;;-4.29;83.52;97519.64;108282;1273;22572;-85
2024/01/11 00:52:47;;;;;;;3.30;3.00;;;;;;;-4.23;83.29;97520.77;109707;1281;137798;-86
2024/01/11 00:55:16;;;;;;;3.90;3.50;;;;;;;-4.23;84.51;97518.90;109963;1282;22998;-86
2024/01/11 00:57:42;;;;;;;3.40;3.10;;;;;;;-4.28;84.36;97511.83;109656;1278;137388;-85
2024/01/11 01:00:12;;;;;;;3.50;3.20;;;;;;;-4.28;84.63;97508.95;108367;1277;22516;-85
2024/01/11 01:02:39;;;;;;;3.60;3.30;;;;;;;-4.32;84.57;97501.17;109871;1277;22356;-85
2024/01/11 01:05:06;;;;;;;3.90;3.60;;;;;;;-4.35;84.56;97491.33;108608;1283;137519;-85
2024/01/11 01:07:33;;;;;;;3.70;3.40;;;;;;;-4.36;83.92;97487.64;108369;1283;22526;-85
2024/01/11 01:10:01;;;;;;;3.60;3.30;;;;;;;-4.35;84.30;97481.34;108205;1265;137583;-86
2024/01/11 01:12:28;;;;;;;4.40;4.00;;;;;;;-4.35;83.17;97474.08;108382;1283;22546;-85
2024/01/11 01:14:55;;;;;;;3.50;3.20;;;;;;;-4.25;82.86;97471.94;108332;1283;26610;-85
2024/01/11 01:17:22;;;;;;;4.10;3.80;;;;;;;-4.17;83.42;97469.95;108257;1278;137589;-87
2024/01/11 01:19:48;;;;;;;3.70;3.40;;;;;;;-4.20;84.03;97469.41;108278;1278;22624;-85
2024/01/11 01:22:15;;;;;;;4.00;3.60;;;;;;;-4.27;84.32;97473.71;108020;1277;137746;-85
2024/01/11 01:24:42;;;;;;;3.60;3.30;;;;;;;-4.32;84.36;97476.66;108181;1284;22530;-84
2024/01/11 01:27:08;;;;;;;4.70;3.60;;;;;;;-4.35;84.49;97473.73;108310;1278;22548;-85
2024/01/11 01:29:35;;;;;;;4.00;3.70;;;;;;;-4.39;84.86;97465.77;108126;1277;138147;-85
2024/01/11 01:32:02;;;;;;;3.80;3.50;;;;;;;-4.44;85.23;97463.77;108343;1280;22551;-86
2024/01/11 01:34:29;;;;;;;3.60;3.30;;;;;;;-4.49;85.61;97461.79;108187;1281;138049;-86
2024/01/11 01:36:55;;;;;;;3.80;3.50;;;;;;;-4.48;85.32;97457.87;108287;1277;24360;-86
2024/01/11 01:39:22;;;;;;;4.50;4.10;;;;;;;-4.48;85.30;97461.42;108269;1285;22548;-86
2024/01/11 01:41:48;;;;;;;3.60;3.30;;;;;;;-4.49;85.50;97464.86;108195;1278;137502;-86
2024/01/11 01:44:15;;;;;;;3.50;3.20;;;;;;;-4.51;85.61;97473.88;108280;1284;23921;-85
2024/01/11 01:46:42;;;;;;;3.70;3.40;;;;;;;-4.55;85.51;97470.98;108188;1277;137543;-85
2024/01/11 01:49:08;;;;;;;3.90;3.60;;;;;;;-4.56;84.93;97469.01;108235;1279;22531;-85
2024/01/11 01:51:35;;;;;;;4.00;3.70;;;;;;;-4.56;85.47;97467.64;108285;1282;22535;-86
2024/01/11 01:54:01;;;;;;;3.60;3.30;;;;;;;-4.53;85.65;97470.77;108212;1278;138685;-86
2024/01/11 01:56:28;;;;;;;3.40;2.90;;;;;;;-4.50;85.56;97472.35;108301;1283;24178;-86
2024/01/11 01:58:56;;;;;;;3.60;3.30;;;;;;;-4.49;85.03;97474.50;108174;1284;137384;-86
2024/01/11 02:01:23;;;;;;;4.50;4.10;;;;;;;-4.50;85.10;97470.30;108298;1284;22521;-85
2024/01/11 02:03:51;;;;;;;3.60;3.30;;;;;;;-4.53;84.83;97473.63;108203;1277;138165;-86
2024/01/11 02:06:17;;;;;;;4.20;3.60;;;;;;;-4.55;85.43;97471.50;108355;1280;22568;-86
2024/01/11 02:08:44;;;;;;;3.90;3.60;;;;;;;-4.57;85.40;97467.36;108362;1277;22530;-86
2024/01/11 02:11:12;;;;;;;3.30;3.10;;;;;;;-4.54;84.56;97474.00;108329;1267;138074;-85
2024/01/11 02:13:39;;;;;;;3.40;3.10;;;;;;;-4.48;84.84;97478.86;108347;1282;22529;-86
2024/01/11 02:16:05;;;;;;;3.40;3.10;;;;;;;-4.49;85.17;97481.60;108478;1275;136667;-85
2024/01/11 02:18:33;;;;;;;4.60;3.80;;;;;;;-4.52;85.29;97483.59;108463;1283;22527;-85
2024/01/11 02:20:59;;;;;;;4.60;4.20;;;;;;;-4.55;85.22;97480.30;108448;1283;22582;-85
2024/01/11 02:23:26;;;;;;;4.80;4.00;;;;;;;-4.54;85.52;97474.52;108254;1278;137617;-84
2024/01/11 02:25:52;;;;;;;4.20;3.80;;;;;;;-4.54;85.04;97466.88;108313;1283;22547;-85
2024/01/11 02:28:19;;;;;;;5.00;4.50;;;;;;;-4.55;85.09;97465.07;108267;1278;137745;-86
2024/01/11 02:30:46;;;;;;;4.40;4.00;;;;;;;-4.57;85.43;97470.39;108287;1283;22552;-85
2024/01/11 02:33:15;;;;;;;4.90;4.50;;;;;;;-4.57;83.59;97468.85;108318;1265;22525;-86
2024/01/11 02:35:42;;;;;;;5.30;4.70;;;;;;;-4.40;83.11;97467.67;109066;1283;138184;-86
2024/01/11 02:38:09;;;;;;;4.50;4.10;;;;;;;-4.27;83.34;97470.34;108296;1283;23441;-86
2024/01/11 02:40:37;;;;;;;4.30;3.90;;;;;;;-4.21;83.50;97470.63;108223;1283;140482;-86
2024/01/11 02:43:08;;;;;;;4.90;4.40;;;;;;;-4.19;84.01;97469.84;108210;1276;24888;-84
2024/01/11 02:45:35;;;;;;;5.20;4.20;;;;;;;-4.16;82.83;97475.32;108323;1283;22580;-84
2024/01/11 02:48:02;;;;;;;5.80;4.60;;;;;;;-4.15;83.48;97469.50;108189;1277;137227;-84
2024/01/11 02:50:28;;;;;;;6.30;4.80;;;;;;;-4.20;83.82;97460.42;108399;1275;22517;-85
2024/01/11 02:52:55;;;;;;;6.10;4.60;;;;;;;-4.28;83.80;97455.13;108327;1275;137905;-84
2024/01/11 02:55:22;;;;;;;4.90;4.40;;;;;;;-4.33;83.05;97455.68;108394;1276;23856;-84
2024/01/11 02:57:48;;;;;;;5.70;4.40;;;;;;;-4.31;82.69;97459.66;108201;1283;137704;-85
2024/01/11 03:00:16;;;;;;;6.20;4.30;;;;;;;-4.27;82.04;97461.89;108259;1283;22694;-84
2024/01/11 03:02:42;;;;;;;5.90;4.50;;;;;;;-4.21;82.41;97461.98;108195;1283;22555;-84
2024/01/11 03:05:09;;;;;;;5.20;4.40;;;;;;;-4.17;82.08;97453.38;108205;1283;138067;-85
2024/01/11 03:07:36;;;;;;;6.20;4.70;;;;;;;-4.12;80.99;97452.31;108463;1284;23141;-85
2024/01/11 03:10:04;;;;;;;6.00;4.90;;;;;;;-4.03;80.81;97454.59;108516;1281;137682;-86
2024/01/11 03:12:31;;;;;;;4.60;4.20;;;;;;;-3.90;80.81;97458.27;108589;1283;22548;-85
2024/01/11 03:14:58;;;;;;;5.10;4.60;;;;;;;-3.84;81.00;97454.98;108649;1282;22526;-85
2024/01/11 03:17:25;;;;;;;7.40;5.90;;;;;;;-3.85;81.33;97452.63;108612;1281;136627;-86
2024/01/11 03:19:51;;;;;;;5.70;4.30;;;;;;;-3.87;81.47;97447.82;108848;1282;22527;-85
2024/01/11 03:22:18;;;;;;;4.30;3.90;;;;;;;-3.90;81.73;97463.88;108600;1281;136505;-85
2024/01/11 03:24:45;;;;;;;5.10;4.00;;;;;;;-3.95;82.41;97469.64;108726;1278;22563;-85
2024/01/11 03:27:11;;;;;;;4.60;4.20;;;;;;;-4.02;82.57;97466.58;108570;1278;22673;-85
2024/01/11 03:29:39;;;;;;;6.60;4.80;;;;;;;-4.08;82.71;97467.70;108599;1274;137993;-85
2024/01/11 03:32:06;;;;;;;5.00;4.40;;;;;;;-4.11;81.62;97467.48;108610;1283;25343;-84
2024/01/11 03:34:33;;;;;;;4.70;4.30;;;;;;;-4.07;82.18;97457.13;108487;1283;138156;-85
2024/01/11 03:37:00;;;;;;;4.20;3.80;;;;;;;-4.08;82.17;97467.15;108492;1281;25437;-85
2024/01/11 03:39:27;;;;;;;8.50;5.90;;;;;;;-4.08;81.62;97472.06;108293;1283;22585;-85
2024/01/11 03:41:53;;;;;;;7.60;6.00;;;;;;;-4.04;80.84;97476.83;108194;1283;137823;-85
2024/01/11 03:44:20;;;;;;;10.30;7.10;;;;;;;-4.01;80.52;97469.73;108266;1283;25312;-86
2024/01/11 03:46:47;;;;;;;8.20;5.70;;;;;;;-4.03;80.76;97468.82;108214;1282;138233;-85
2024/01/11 03:49:14;;;;;;;7.10;4.90;;;;;;;-4.10;81.24;97471.83;108316;1283;25441;-85
2024/01/11 03:51:40;;;;;;;8.70;5.70;;;;;;;-4.19;81.45;97472.71;108305;1282;22525;-85
2024/01/11 03:54:07;;;;;;;9.80;6.70;;;;;;;-4.28;81.49;97473.91;108114;1283;137490;-85
2024/01/11 03:56:38;;;;;;;9.10;6.40;;;;;;;-4.34;81.08;97469.11;108351;1273;22576;-85
2024/01/11 03:59:08;;;;;;;7.70;5.60;;;;;;;-4.37;81.68;97471.80;108179;1282;138024;-86
2024/01/11 04:01:41;;;;;;;8.00;6.30;;;;;;;-4.41;81.88;97473.61;108297;1282;22528;-85
2024/01/11 04:04:08;;;;;;;8.00;6.60;;;;;;;-4.45;81.32;97476.17;108187;1283;137949;-85
2024/01/11 04:06:35;;;;;;;11.30;7.00;;;;;;;-4.44;81.80;97467.69;108320;1283;22529;-85
2024/01/11 04:09:02;;;;;;;7.70;6.60;;;;;;;-4.47;82.60;97465.08;108364;1282;24446;-85
2024/01/11 04:11:32;;;;;;;13.90;8.20;;;;;;;-4.53;82.60;97460.96;108264;1282;137466;-85
2024/01/11 04:13:58;;;;;;;9.50;6.30;;;;;;;-4.58;81.68;97453.52;108355;1282;22594;-85
2024/01/11 04:16:25;;;;;;;9.00;6.30;;;;;;;-4.55;82.55;97448.36;108045;1285;138358;-85
2024/01/11 04:18:51;;;;;;;9.00;6.20;;;;;;;-4.55;82.24;97444.80;108173;1282;25256;-86
2024/01/11 04:21:28;;;;;;;24.90;10.70;;;;;;;-4.52;82.41;97447.89;108333;1281;22577;-85
2024/01/11 04:23:55;;;;;;;40.70;15.80;;;;;;;-4.51;82.60;97444.30;109752;1283;137776;-86
2024/01/11 04:26:21;;;;;;;47.50;19.60;;;;;;;-4.51;82.27;97443.98;109854;1283;22193;-85
2024/01/11 04:28:49;;;;;;;49.10;18.80;;;;;;;-4.51;82.09;97438.91;108918;1283;137847;-85
2024/01/11 04:31:18;;;;;;;20.40;9.70;;;;;;;-4.51;82.00;97426.06;109319;1283;23324;-85
2024/01/11 04:33:45;;;;;;;13.60;6.80;;;;;;;-4.57;81.76;97420.67;108197;1283;137748;-85
2024/01/11 04:36:12;;;;;;;55.70;22.40;;;;;;;-4.60;82.37;97429.27;108332;1268;22537;-86
2024/01/11 04:38:39;;;;;;;98.60;37.30;;;;;;;-4.64;82.52;97442.12;108326;1283;25258;-85
2024/01/11 04:41:09;;;;;;;38.90;15.90;;;;;;;-4.63;82.66;97448.66;108551;1271;137380;-85
2024/01/11 04:43:40;;;;;;;42.80;16.60;;;;;;;-4.70;82.30;97447.63;108555;1283;22575;-85
2024/01/11 04:46:20;;;;;;;38.90;13.30;;;;;;;-4.71;82.64;97452.37;108616;1283;137980;-85
2024/01/11 04:48:47;;;;;;;20.60;9.30;;;;;;;-4.73;82.80;97446.70;108435;1283;22630;-84
2024/01/11 04:51:14;;;;;;;99.00;26.20;;;;;;;-4.74;82.12;97455.87;108565;1281;24370;-85
2024/01/11 04:53:41;;;;;;;67.70;20.40;;;;;;;-4.71;82.00;97452.04;108216;1283;137820;-84
2024/01/11 04:56:08;;;;;;;14.90;7.70;;;;;;;-4.63;82.05;97450.20;108307;1282;24250;-84
2024/01/11 04:58:40;;;;;;;13.30;7.10;;;;;;;-4.59;81.93;97442.77;108273;1283;138401;-85
2024/01/11 05:01:06;;;;;;;97.70;42.40;;;;;;;-4.57;81.74;97446.39;108411;1282;22527;-85
2024/01/11 05:03:33;;;;;;;24.90;12.00;;;;;;;-4.54;82.34;97450.84;108370;1283;23293;-85
2024/01/11 05:06:00;;;;;;;16.80;8.20;;;;;;;-4.60;82.75;97444.66;108216;1275;137653;-85
2024/01/11 05:08:27;;;;;;;8.00;6.40;;;;;;;-4.72;82.35;97429.27;108304;1283;22561;-85
2024/01/11 05:10:54;;;;;;;18.20;10.30;;;;;;;-4.75;81.72;97419.91;108256;1282;137930;-85
2024/01/11 05:13:22;;;;;;;23.10;9.10;;;;;;;-4.72;82.38;97412.35;108296;1282;26513;-85
2024/01/11 05:15:48;;;;;;;6.60;5.90;;;;;;;-4.75;82.49;97408.25;108215;1282;137777;-84
2024/01/11 05:18:15;;;;;;;7.80;5.70;;;;;;;-4.79;82.20;97413.98;108325;1282;24385;-85
2024/01/11 05:20:42;;;;;;;7.60;6.40;;;;;;;-4.81;82.95;97409.86;109917;1276;22852;-86
2024/01/11 05:23:08;;;;;;;5.90;5.10;;;;;;;-4.84;83.31;97413.85;108217;1282;137941;-84
2024/01/11 05:25:35;;;;;;;5.30;4.80;;;;;;;-4.89;83.82;97401.20;108304;1278;23974;-85
2024/01/11 05:28:03;;;;;;;5.90;4.70;;;;;;;-4.97;83.99;97392.41;108211;1275;138019;-85
2024/01/11 05:30:30;;;;;;;5.00;4.60;;;;;;;-4.97;83.55;97391.07;108311;1275;22559;-85
2024/01/11 05:32:56;;;;;;;4.10;3.70;;;;;;;-4.95;83.46;97393.17;108435;1275;23122;-85
2024/01/11 05:35:24;;;;;;;4.20;3.80;;;;;;;-4.94;83.57;97398.73;108214;1277;137747;-85
2024/01/11 05:37:50;;;;;;;4.10;3.70;;;;;;;-4.93;83.36;97397.30;108313;1277;25464;-85
2024/01/11 05:40:17;;;;;;;3.70;3.40;;;;;;;-4.93;83.51;97398.64;108214;1278;137816;-86
2024/01/11 05:42:44;;;;;;;3.80;3.50;;;;;;;-4.96;83.62;97399.13;108333;1275;22540;-85
2024/01/11 05:45:10;;;;;;;4.80;4.40;;;;;;;-4.99;83.26;97393.19;108329;1278;23252;-86
2024/01/11 05:47:37;;;;;;;4.00;3.60;;;;;;;-4.97;82.73;97387.85;108184;1282;137647;-85
2024/01/11 05:50:05;;;;;;;3.50;3.30;;;;;;;-4.95;82.08;97383.02;108323;1274;25157;-85
2024/01/11 05:52:31;;;;;;;3.60;3.40;;;;;;;-4.91;82.21;97383.22;108172;1275;138316;-85
2024/01/11 05:54:58;;;;;;;3.30;3.10;;;;;;;-4.92;82.50;97370.06;108343;1282;24293;-85
2024/01/11 05:57:25;;;;;;;4.90;4.50;;;;;;;-4.90;80.45;97361.38;108282;1283;23863;-85
2024/01/11 05:59:52;;;;;;;5.30;3.80;;;;;;;-4.80;81.04;97364.68;108305;1282;137642;-85
2024/01/11 06:02:20;;;;;;;4.20;3.70;;;;;;;-4.74;80.47;97362.71;108317;1278;25287;-85
2024/01/11 06:04:47;;;;;;;4.60;3.80;;;;;;;-4.68;80.30;97354.89;108196;1282;137703;-85
2024/01/11 06:07:14;;;;;;;4.90;4.10;;;;;;;-4.65;80.67;97354.27;108304;1282;25448;-85
2024/01/11 06:09:41;;;;;;;4.70;3.70;;;;;;;-4.65;79.90;97347.31;108238;1282;22557;-85
2024/01/11 06:12:09;;;;;;;3.90;3.60;;;;;;;-4.56;78.08;97338.11;108211;1282;137486;-85
2024/01/11 06:14:35;;;;;;;13.80;8.70;;;;;;;-4.46;79.11;97330.08;108337;1282;24226;-85
2024/01/11 06:17:02;;;;;;;6.60;4.60;;;;;;;-4.42;77.74;97330.07;108330;1279;137784;-86
2024/01/11 06:19:28;;;;;;;5.80;4.70;;;;;;;-4.34;78.76;97331.62;108364;1282;22860;-85
2024/01/11 06:21:55;;;;;;;4.10;3.60;;;;;;;-4.35;78.16;97328.41;108376;1281;137712;-84
2024/01/11 06:24:22;;;;;;;4.10;3.60;;;;;;;-4.34;78.56;97338.39;108424;1282;22600;-84
2024/01/11 06:26:48;;;;;;;3.40;3.20;;;;;;;-4.36;79.68;97345.39;108500;1281;22555;-85
2024/01/11 06:29:15;;;;;;;3.50;3.10;;;;;;;-4.38;80.53;97349.05;108336;1279;137990;-85
2024/01/11 06:31:41;;;;;;;3.60;3.30;;;;;;;-4.41;79.98;97350.50;108351;1279;22821;-85
2024/01/11 06:34:08;;;;;;;3.50;3.20;;;;;;;-4.42;80.38;97349.17;108241;1283;138895;-86
2024/01/11 06:36:34;;;;;;;3.70;3.30;;;;;;;-4.41;80.21;97348.81;108418;1275;22523;-85
2024/01/11 06:39:02;;;;;;;3.80;3.40;;;;;;;-4.42;80.48;97346.98;108324;1282;22527;-85
2024/01/11 06:41:28;;;;;;;4.90;3.10;;;;;;;-4.40;80.43;97355.88;108191;1282;138470;-85
2024/01/11 06:43:55;;;;;;;3.60;3.20;;;;;;;-4.37;80.53;97355.07;108322;1283;24259;-86
2024/01/11 06:46:21;;;;;;;3.40;3.10;;;;;;;-4.35;79.98;97345.36;108239;1282;138095;-85
2024/01/11 06:48:49;;;;;;;3.30;2.90;;;;;;;-4.37;80.66;97340.70;108412;1283;22547;-85
2024/01/11 06:51:16;;;;;;;3.20;2.90;;;;;;;-4.38;80.73;97345.82;108337;1282;22542;-84
2024/01/11 06:53:42;;;;;;;3.40;3.10;;;;;;;-4.37;80.38;97342.06;108266;1282;137674;-85
2024/01/11 06:56:16;;;;;;;3.40;3.10;;;;;;;-4.41;80.20;97350.13;108485;1281;22549;-86
2024/01/11 06:58:43;;;;;;;3.20;2.90;;;;;;;-4.40;80.10;97354.16;108326;1282;137587;-86
2024/01/11 07:01:10;;;;;;;3.90;3.60;;;;;;;-4.41;79.47;97356.74;108497;1281;24088;-85
2024/01/11 07:03:37;;;;;;;4.40;3.90;;;;;;;-4.37;78.91;97356.62;108309;1282;25350;-85
2024/01/11 07:06:04;;;;;;;3.40;3.10;;;;;;;-4.35;78.97;97359.39;109825;1275;137471;-86
2024/01/11 07:08:31;;;;;;;6.50;4.10;;;;;;;-4.34;79.26;97354.11;109243;1282;22536;-85
2024/01/11 07:10:57;;;;;;;12.30;8.20;;;;;;;-4.34;78.02;97350.53;108336;1281;137876;-85
2024/01/11 07:13:25;;;;;;;22.50;12.60;;;;;;;-4.30;77.84;97348.98;108433;1281;22561;-85
2024/01/11 07:15:52;;;;;;;27.60;9.80;;;;;;;-4.26;77.91;97352.56;108330;1281;138119;-86
2024/01/11 07:18:19;;;;;;;10.40;5.80;;;;;;;-4.25;77.51;97339.64;108315;1283;22578;-85
2024/01/11 07:20:47;;;;;;;17.20;7.80;;;;;;;-4.22;76.64;97334.63;108380;1281;25330;-86
2024/01/11 07:23:14;;;;;;;21.60;11.90;;;;;;;-4.18;76.64;97339.21;108252;1283;137945;-86
2024/01/11 07:25:41;;;;;;;40.20;15.30;;;;;;;-4.15;75.96;97332.61;108376;1280;22563;-85
2024/01/11 07:28:08;;;;;;;16.20;7.80;;;;;;;-4.11;75.13;97322.09;108536;1273;136938;-85
2024/01/11 07:30:35;;;;;;;12.90;6.40;;;;;;;-4.03;74.59;97310.09;108575;1282;22934;-85
2024/01/11 07:33:02;;;;;;;10.70;7.10;;;;;;;-3.99;74.88;97299.40;108712;1283;22567;-85
2024/01/11 07:35:29;;;;;;;9.10;6.70;;;;;;;-3.98;74.95;97304.25;108587;1282;136608;-85
2024/01/11 07:37:56;;;;;;;12.00;6.40;;;;;;;-4.01;75.85;97304.23;108654;1281;23801;-84
2024/01/11 07:40:23;;;;;;;18.90;7.70;;;;;;;-4.04;76.29;97304.71;108590;1282;137934;-85
2024/01/11 07:42:50;;;;;;;20.00;9.30;;;;;;;-4.02;74.46;97299.53;108746;1282;24355;-85
2024/01/11 07:45:17;;;;;;;12.10;7.90;;;;;;;-3.91;73.72;97295.15;108676;1282;22632;-85
2024/01/11 07:47:43;;;;;;;26.60;13.80;;;;;;;-3.83;72.40;97289.84;108549;1282;137690;-85
2024/01/11 07:50:10;;;;;;;13.30;7.80;;;;;;;-3.75;72.48;97285.91;108548;1279;22675;-85
2024/01/11 07:52:37;;;;;;;8.60;5.30;;;;;;;-3.68;72.40;97289.48;108501;1273;137813;-85
2024/01/11 07:55:07;;;;;;;10.80;6.00;;;;;;;-3.68;72.56;97288.29;108576;1282;23305;-85
2024/01/11 07:57:34;;;;;;;14.30;8.10;;;;;;;-3.65;72.36;97287.65;108577;1277;24964;-85
2024/01/11 08:00:03;;;;;;;16.50;9.70;;;;;;;-3.60;72.04;97274.02;108581;1281;136602;-85
2024/01/11 08:02:31;;;;;;;16.00;8.60;;;;;;;-3.56;72.00;97262.85;108651;1281;22724;-85
2024/01/11 08:04:59;;;;;;;9.80;5.90;;;;;;;-3.55;71.81;97264.83;108436;1282;137911;-85
2024/01/11 08:07:30;;;;;;;14.00;6.80;;;;;;;-3.53;71.35;97277.81;108458;1281;22532;-84
2024/01/11 08:09:57;;;;;;;15.70;10.30;;;;;;;-3.49;71.56;97292.98;108257;1283;137854;-84
2024/01/11 08:12:25;;;;;;;15.50;8.00;;;;;;;-3.43;71.86;97305.77;108357;1277;22967;-84
2024/01/11 08:14:51;;;;;;;21.20;10.00;;;;;;;-3.41;72.50;97313.27;108430;1282;22534;-84
2024/01/11 08:17:19;;;;;;;10.20;6.70;;;;;;;-3.41;73.40;97317.02;108302;1277;138391;-84
2024/01/11 08:19:45;;;;;;;17.10;11.60;;;;;;;-3.42;73.98;97328.75;108347;1283;22541;-85
2024/01/11 08:22:12;;;;;;;14.20;9.10;;;;;;;-3.42;72.59;97331.45;108320;1283;138305;-85
2024/01/11 08:24:39;;;;;;;18.60;9.20;;;;;;;-3.43;72.33;97324.39;108526;1284;22534;-85
2024/01/11 08:27:06;;;;;;;21.60;10.30;;;;;;;-3.40;71.39;97323.06;108516;1282;22534;-85
2024/01/11 08:29:33;;;;;;;15.20;8.90;;;;;;;-3.35;71.58;97316.22;108553;1283;136812;-85
2024/01/11 08:32:04;;;;;;;23.80;14.30;;;;;;;-3.33;71.48;97301.69;108590;1283;22551;-85
2024/01/11 08:34:31;;;;;;;13.90;7.00;;;;;;;-3.29;71.31;97293.05;108317;1283;137976;-84
2024/01/11 08:36:58;;;;;;;10.70;6.70;;;;;;;-3.26;69.69;97287.33;108307;1281;22634;-84
2024/01/11 08:39:25;;;;;;;10.10;7.10;;;;;;;-3.19;68.78;97290.86;108437;1283;22880;-84
2024/01/11 08:41:52;;;;;;;13.30;9.00;;;;;;;-3.09;69.31;97288.83;108271;1266;137954;-85
2024/01/11 08:44:19;;;;;;;20.20;9.90;;;;;;;-3.02;69.08;97277.95;108335;1283;23501;-84
2024/01/11 08:46:45;;;;;;;14.80;7.60;;;;;;;-2.94;69.40;97277.23;108723;1282;137763;-85
2024/01/11 08:49:12;;;;;;;18.80;9.80;;;;;;;-2.86;70.40;97288.90;108405;1283;23972;-85
2024/01/11 08:51:39;;;;;;;27.00;12.30;;;;;;;-2.80;70.71;97290.77;108350;1279;22540;-85
2024/01/11 08:54:08;;;;;;;17.00;9.90;;;;;;;-2.74;70.32;97301.48;109613;1284;137633;-87
2024/01/11 08:56:35;;;;;;;14.90;9.70;;;;;;;-2.65;69.81;97309.01;109824;1283;22192;-87
2024/01/11 08:59:02;;;;;;;25.70;13.40;;;;;;;-2.57;69.95;97310.30;109799;1276;138137;-87
2024/01/11 09:01:29;;;;;;;13.90;9.60;;;;;;;-2.48;69.54;97296.73;109844;1282;22195;-87
2024/01/11 09:03:56;;;;;;;19.10;10.20;;;;;;;-2.39;69.87;97299.73;108412;1280;137887;-86
2024/01/11 09:06:22;;;;;;;15.00;10.70;;;;;;;-2.30;70.39;97300.75;108285;1283;26461;-87
2024/01/11 09:08:49;;;;;;;14.10;8.50;;;;;;;-2.21;70.43;97302.13;108359;1277;22556;-86
2024/01/11 09:11:18;;;;;;;20.70;10.90;;;;;;;-2.12;70.52;97295.37;108243;1277;138057;-86
2024/01/11 09:13:45;;;;;;;16.70;10.10;;;;;;;-2.02;69.87;97288.73;108361;1282;24225;-86
2024/01/11 09:16:16;;;;;;;12.00;9.90;;;;;;;-1.95;69.67;97286.98;108269;1283;137988;-86
2024/01/11 09:18:43;;;;;;;13.80;8.20;;;;;;;-1.91;68.81;97286.78;108356;1276;23703;-87
2024/01/11 09:21:11;;;;;;;22.60;11.90;;;;;;;-1.86;69.28;97278.67;108430;1276;22702;-85
2024/01/11 09:23:37;;;;;;;21.90;13.30;;;;;;;-1.79;69.49;97281.56;108240;1282;138438;-86
2024/01/11 09:26:04;;;;;;;20.80;11.30;;;;;;;-1.73;70.00;97281.24;108334;1273;22533;-86
2024/01/11 09:28:31;;;;;;;15.60;10.60;;;;;;;-1.68;70.28;97279.23;108259;1282;137919;-86
2024/01/11 09:30:59;;;;;;;30.90;19.20;;;;;;;-1.62;70.64;97284.52;108383;1283;23927;-87
2024/01/11 09:33:26;;;;;;;32.40;19.80;;;;;;;-1.57;71.02;97289.16;108365;1282;22865;-86
2024/01/11 09:35:55;;;;;;;27.70;15.00;;;;;;;-1.53;71.00;97294.73;108236;1283;138061;-86
2024/01/11 09:38:22;;;;;;;16.50;10.70;;;;;;;-1.48;70.80;97291.23;108326;1282;22602;-86
2024/01/11 09:41:09;;;;;;;14.90;8.70;;;;;;;-1.45;70.34;97285.65;108319;1282;138226;-86
2024/01/11 09:43:35;;;;;;;10.40;7.20;;;;;;;-1.44;70.55;97283.86;109906;1276;22964;-87
2024/01/11 09:46:05;;;;;;;12.40;7.40;;;;;;;-1.43;69.56;97282.61;109344;1282;137828;-86
2024/01/11 09:48:33;;;;;;;15.60;11.10;;;;;;;-1.37;69.23;97275.83;108373;1265;22562;-87
2024/01/11 09:51:04;;;;;;;14.60;9.70;;;;;;;-1.30;69.15;97276.42;108356;1273;23000;-87
2024/01/11 09:53:33;;;;;;;11.90;6.80;;;;;;;-1.24;68.71;97278.64;108245;1283;137692;-86
2024/01/11 09:56:00;;;;;;;11.10;6.80;;;;;;;-1.21;68.66;97275.73;108321;1269;22646;-86
2024/01/11 09:58:27;;;;;;;10.20;6.90;;;;;;;-1.18;69.15;97278.28;108171;1284;137948;-86
2024/01/11 10:00:55;;;;;;;8.50;6.40;;;;;;;-1.12;68.46;97282.89;108356;1282;22569;-87
2024/01/11 10:03:26;;;;;;;11.20;6.30;;;;;;;-1.04;69.05;97275.11;108766;1277;22527;-87
2024/01/11 10:05:56;;;;;;;10.60;5.80;;;;;;;-0.98;68.71;97272.55;108306;1282;137710;-86
2024/01/11 10:08:22;;;;;;;9.70;6.30;;;;;;;-0.95;68.17;97276.62;108332;1284;22542;-86
2024/01/11 10:10:51;;;;;;;12.50;8.50;;;;;;;-0.92;67.88;97288.55;108327;1282;137644;-86
2024/01/11 10:13:17;;;;;;;12.90;8.80;;;;;;;-0.91;68.17;97282.88;108377;1283;22530;-86
2024/01/11 10:15:44;;;;;;;12.30;7.20;;;;;;;-0.89;66.92;97283.61;108204;1283;137902;-87
2024/01/11 10:18:11;;;;;;;10.90;7.40;;;;;;;-0.86;68.14;97274.09;108314;1283;22561;-86
2024/01/11 10:20:37;;;;;;;9.90;7.80;;;;;;;-0.86;67.36;97268.12;108467;1282;22536;-86
2024/01/11 10:23:04;;;;;;;9.20;6.70;;;;;;;-0.86;66.61;97268.98;108267;1277;137585;-86
2024/01/11 10:25:31;;;;;;;12.00;7.40;;;;;;;-0.86;66.10;97264.17;108313;1283;23777;-87
2024/01/11 10:27:57;;;;;;;9.10;6.60;;;;;;;-0.83;66.42;97249.59;108387;1282;138262;-87
2024/01/11 10:30:26;;;;;;;9.40;5.70;;;;;;;-0.81;66.20;97242.33;109216;1282;22585;-86
2024/01/11 10:32:52;;;;;;;11.60;6.70;;;;;;;-0.79;64.12;97234.52;108355;1283;23627;-87
2024/01/11 10:35:19;;;;;;;9.60;6.60;;;;;;;-0.78;64.88;97240.09;108337;1276;137741;-87
2024/01/11 10:37:45;;;;;;;11.30;7.80;;;;;;;-0.75;65.81;97245.67;108478;1283;22617;-86
2024/01/11 10:40:12;;;;;;;14.70;8.40;;;;;;;-0.71;66.26;97241.00;108180;1283;137796;-86
2024/01/11 10:42:45;;;;;;;8.90;5.40;;;;;;;-0.68;66.52;97238.45;108416;1283;22533;-87
2024/01/11 10:45:18;;;;;;;10.50;6.70;;;;;;;-0.67;66.04;97233.11;108369;1283;22525;-87
2024/01/11 10:47:59;;;;;;;12.00;7.70;;;;;;;-0.63;66.27;97224.73;108295;1282;137649;-86
2024/01/11 10:50:25;;;;;;;10.60;6.90;;;;;;;-0.61;65.36;97224.76;109018;1283;22530;-86
2024/01/11 10:53:03;;;;;;;12.10;7.10;;;;;;;-0.60;65.63;97229.30;109034;1282;137601;-88
2024/01/11 10:55:31;;;;;;;12.30;7.80;;;;;;;-0.56;66.77;97222.96;109791;1281;22592;-87
2024/01/11 10:57:58;;;;;;;15.20;8.60;;;;;;;-0.52;65.42;97219.50;108299;1283;138047;-87
2024/01/11 11:00:25;;;;;;;11.70;7.40;;;;;;;-0.49;65.32;97211.64;108364;1283;22548;-86
2024/01/11 11:02:52;;;;;;;14.90;8.60;;;;;;;-0.46;65.25;97206.39;108411;1282;22732;-87
2024/01/11 11:05:18;;;;;;;13.40;8.20;;;;;;;-0.46;64.10;97202.40;109190;1277;137679;-86
2024/01/11 11:07:45;;;;;;;12.30;7.50;;;;;;;-0.47;64.09;97204.38;109896;1283;22207;-86
2024/01/11 11:10:13;;;;;;;14.10;7.70;;;;;;;-0.46;64.64;97201.73;109722;1276;136594;-86
2024/01/11 11:12:40;;;;;;;13.60;8.80;;;;;;;-0.45;64.63;97199.65;109903;1265;22178;-86
2024/01/11 11:15:07;;;;;;;14.40;8.10;;;;;;;-0.42;64.55;97192.80;109924;1275;22803;-86
2024/01/11 11:17:34;;;;;;;13.30;9.00;;;;;;;-0.39;64.07;97182.88;108609;1282;137538;-86